Time;durP1;ratioP1;P1;durP2;ratioP2;P2;SDS_P1;SDS_P2;PMS_P1;PMS_P2;Temp;Humidity;BMP_temperature;BMP_pressure;BME280_temperature;BME280_humidity;BME280_pressure;Samples;Min_cycle;Max_cycle;Signal;HPM_P1;HPM_P2
2023/06/05 00:02:15;;;;;;;;;;;14.30;69.10;;;;;;5092055;28;19920;-33
2023/06/05 00:04:41;;;;;;;;;;;14.20;69.00;;;;;;5092157;28;20298;-35
2023/06/05 00:07:06;;;;;;;;;;;14.20;68.80;;;;;;5091934;28;19991;-35
2023/06/05 00:09:32;;;;;;;;;;;14.20;68.80;;;;;;5091850;28;19957;-35
2023/06/05 00:11:57;;;;;;;;;;;14.20;68.70;;;;;;5091830;28;20370;-42
2023/06/05 00:14:23;;;;;;;;;;;14.20;68.60;;;;;;5091682;28;19908;-39
2023/06/05 00:16:51;;;;;;;;;;;14.20;68.70;;;;;;5091892;28;19965;-35
2023/06/05 00:19:17;;;;;;;;;;;14.10;69.00;;;;;;5091939;28;19909;-35
2023/06/05 00:21:42;;;;;;;;;;;14.10;69.30;;;;;;5091592;28;20359;-36
2023/06/05 00:24:08;;;;;;;;;;;14.10;70.20;;;;;;5091529;28;20425;-38
2023/06/05 00:26:33;;;;;;;;;;;14.00;69.50;;;;;;5091704;28;19923;-35
2023/06/05 00:28:59;;;;;;;;;;;14.00;69.50;;;;;;5091421;28;19909;-34
2023/06/05 00:31:24;;;;;;;;;;;14.00;69.40;;;;;;5091916;28;20254;-35
2023/06/05 00:33:51;;;;;;;;;;;13.90;69.20;;;;;;5091552;28;19919;-36
2023/06/05 00:36:18;;;;;;;;;;;14.00;69.40;;;;;;5091666;28;20331;-35
2023/06/05 00:38:45;;;;;;;;;;;13.90;69.30;;;;;;5073587;28;19908;-36
2023/06/05 00:41:10;;;;;;;;;;;13.90;69.70;;;;;;5091906;28;19915;-35
2023/06/05 00:43:37;;;;;;;;;;;13.90;69.70;;;;;;5091628;28;19908;-35
2023/06/05 00:46:03;;;;;;;;;;;13.80;69.50;;;;;;5091531;28;19908;-36
2023/06/05 00:48:30;;;;;;;;;;;13.80;69.80;;;;;;5091629;28;19916;-35
2023/06/05 00:50:56;;;;;;;;;;;13.80;70.10;;;;;;5091433;28;19916;-36
2023/06/05 00:53:22;;;;;;;;;;;13.70;70.20;;;;;;5091782;28;19930;-39
2023/06/05 00:55:48;;;;;;;;;;;13.70;70.20;;;;;;5091284;28;19912;-35
2023/06/05 00:58:15;;;;;;;;;;;13.60;70.30;;;;;;5091792;28;19916;-46
2023/06/05 01:00:40;;;;;;;;;;;13.60;71.10;;;;;;5091456;28;19943;-35
2023/06/05 01:03:08;;;;;;;;;;;13.60;70.40;;;;;;5091486;28;19908;-35
2023/06/05 01:05:36;;;;;;;;;;;13.60;70.30;;;;;;5091611;28;19908;-35
2023/06/05 01:08:03;;;;;;;;;;;13.60;70.20;;;;;;5091268;28;20026;-35
2023/06/05 01:10:29;;;;;;;;;;;13.60;70.10;;;;;;5091430;28;19954;-34
2023/06/05 01:12:54;;;;;;;;;;;13.60;69.90;;;;;;5091319;28;20379;-37
2023/06/05 01:15:28;;;;;;;;;;;13.60;69.80;;;;;;5091296;28;20279;-35
2023/06/05 01:17:55;;;;;;;;;;;13.60;69.80;;;;;;5091289;28;19963;-36
2023/06/05 01:20:21;;;;;;;;;;;13.60;69.70;;;;;;5091466;28;20355;-35
2023/06/05 01:22:52;;;;;;;;;;;13.50;69.70;;;;;;5091166;28;19999;-35
2023/06/05 01:25:18;;;;;;;;;;;13.50;69.80;;;;;;5091529;28;19920;-36
2023/06/05 01:28:02;;;;;;;;;;;13.50;69.90;;;;;;5093991;28;19920;-37
2023/06/05 01:30:30;;;;;;;;;;;13.50;69.90;;;;;;5094819;28;19909;-35
2023/06/05 01:33:02;;;;;;;;;;;13.50;70.00;;;;;;5094957;28;19919;-39
2023/06/05 01:35:29;;;;;;;;;;;13.50;70.00;;;;;;5076505;28;19908;-34
2023/06/05 01:37:57;;;;;;;;;;;13.50;70.00;;;;;;5094978;28;19956;-35
2023/06/05 01:40:23;;;;;;;;;;;13.50;70.00;;;;;;5076536;28;19934;-36
2023/06/05 01:42:50;;;;;;;;;;;13.40;70.10;;;;;;5094564;28;20015;-34
2023/06/05 01:45:17;;;;;;;;;;;13.40;70.20;;;;;;5094930;28;19973;-35
2023/06/05 01:47:42;;;;;;;;;;;13.30;70.40;;;;;;5094628;28;19923;-35
2023/06/05 01:50:08;;;;;;;;;;;13.30;70.50;;;;;;5094640;28;19958;-35
2023/06/05 01:52:35;;;;;;;;;;;13.20;70.60;;;;;;5094429;28;19921;-36
2023/06/05 01:55:03;;;;;;;;;;;13.20;70.80;;;;;;5094354;28;19908;-35
2023/06/05 01:57:29;;;;;;;;;;;13.20;70.80;;;;;;5094494;28;19938;-35
2023/06/05 01:59:55;;;;;;;;;;;13.10;70.70;;;;;;5094542;28;19969;-34
2023/06/05 02:02:21;;;;;;;;;;;13.20;70.70;;;;;;5094338;28;20348;-36
2023/06/05 02:04:47;;;;;;;;;;;13.20;70.60;;;;;;5093994;28;20291;-36
2023/06/05 02:07:14;;;;;;;;;;;13.20;70.50;;;;;;5093893;28;19912;-36
2023/06/05 02:09:40;;;;;;;;;;;13.20;70.40;;;;;;5094411;28;20366;-36
2023/06/05 02:12:06;;;;;;;;;;;13.20;70.40;;;;;;5093937;28;19912;-38
2023/06/05 02:14:35;;;;;;;;;;;13.20;70.30;;;;;;5093930;28;19913;-38
2023/06/05 02:17:03;;;;;;;;;;;13.20;70.30;;;;;;5093957;28;19920;-35
2023/06/05 02:19:28;;;;;;;;;;;13.20;70.40;;;;;;5093977;28;19977;-35
2023/06/05 02:21:54;;;;;;;;;;;13.10;70.40;;;;;;5093707;28;19916;-40
2023/06/05 02:24:19;;;;;;;;;;;13.10;70.50;;;;;;5094100;28;20015;-34
2023/06/05 02:26:45;;;;;;;;;;;13.10;70.80;;;;;;5093772;28;20283;-36
2023/06/05 02:29:10;;;;;;;;;;;13.00;70.90;;;;;;5094023;28;19986;-33
2023/06/05 02:31:36;;;;;;;;;;;12.90;71.20;;;;;;5075712;28;19912;-35
2023/06/05 02:34:02;;;;;;;;;;;12.90;71.40;;;;;;5093505;28;20356;-35
2023/06/05 02:36:32;;;;;;;;;;;12.90;71.40;;;;;;5093393;28;19912;-34
2023/06/05 02:39:02;;;;;;;;;;;12.80;71.50;;;;;;5092537;28;19915;-37
2023/06/05 02:41:27;;;;;;;;;;;12.70;71.70;;;;;;5093747;28;20403;-35
2023/06/05 02:43:54;;;;;;;;;;;12.60;72.20;;;;;;5093315;28;19999;-35
2023/06/05 02:46:20;;;;;;;;;;;12.60;72.30;;;;;;5093286;28;19915;-35
2023/06/05 02:48:46;;;;;;;;;;;12.60;72.10;;;;;;5093517;28;19908;-35
2023/06/05 02:51:11;;;;;;;;;;;12.60;72.00;;;;;;5093156;28;20352;-35
2023/06/05 02:53:37;;;;;;;;;;;12.50;72.00;;;;;;5093239;28;19927;-34
2023/06/05 02:56:03;;;;;;;;;;;12.50;71.90;;;;;;5093248;28;20300;-37
2023/06/05 02:58:28;;;;;;;;;;;12.50;72.20;;;;;;5093319;28;19908;-37
2023/06/05 03:00:55;;;;;;;;;;;12.50;72.20;;;;;;5093043;28;19965;-36
2023/06/05 03:03:26;;;;;;;;;;;12.50;72.10;;;;;;5093043;28;19978;-36
2023/06/05 03:05:52;;;;;;;;;;;12.50;72.10;;;;;;5093262;28;20376;-37
2023/06/05 03:08:18;;;;;;;;;;;12.50;72.40;;;;;;5093220;28;19915;-38
2023/06/05 03:10:43;;;;;;;;;;;12.40;72.60;;;;;;5092800;28;19912;-39
2023/06/05 03:13:09;;;;;;;;;;;12.30;72.60;;;;;;5092753;28;19908;-38
2023/06/05 03:15:34;;;;;;;;;;;12.40;72.60;;;;;;5092812;28;19942;-38
2023/06/05 03:18:00;;;;;;;;;;;12.30;72.90;;;;;;5092795;28;19924;-34
2023/06/05 03:20:26;;;;;;;;;;;12.30;72.90;;;;;;5093060;28;19908;-35
2023/06/05 03:22:51;;;;;;;;;;;12.30;73.00;;;;;;5092673;28;19908;-33
2023/06/05 03:25:17;;;;;;;;;;;12.30;73.00;;;;;;5092953;28;20331;-38
2023/06/05 03:27:42;;;;;;;;;;;12.30;73.10;;;;;;5074264;28;19999;-36
2023/06/05 03:30:08;;;;;;;;;;;12.20;73.20;;;;;;5092475;28;20264;-33
2023/06/05 03:32:34;;;;;;;;;;;12.20;73.20;;;;;;5092643;28;20496;-36
2023/06/05 03:34:59;;;;;;;;;;;12.20;73.50;;;;;;5092645;28;19908;-36
2023/06/05 03:37:25;;;;;;;;;;;12.10;73.50;;;;;;5092680;28;20045;-36
2023/06/05 03:39:50;;;;;;;;;;;12.10;73.70;;;;;;5092424;28;19908;-37
2023/06/05 03:42:16;;;;;;;;;;;12.10;73.50;;;;;;5092461;28;19947;-37
2023/06/05 03:44:41;;;;;;;;;;;12.10;73.90;;;;;;5092639;28;19908;-35
2023/06/05 03:47:07;;;;;;;;;;;12.10;73.90;;;;;;5074132;28;20352;-35
2023/06/05 03:49:33;;;;;;;;;;;12.10;74.10;;;;;;5092195;28;20011;-36
2023/06/05 03:52:03;;;;;;;;;;;12.10;74.10;;;;;;5092440;28;20392;-35
2023/06/05 03:54:32;;;;;;;;;;;12.00;74.20;;;;;;5092252;28;19908;-36
2023/06/05 03:57:00;;;;;;;;;;;12.10;74.00;;;;;;5091995;28;19912;-35
2023/06/05 03:59:27;;;;;;;;;;;12.10;73.80;;;;;;5092399;28;20352;-36
2023/06/05 04:01:53;;;;;;;;;;;12.10;73.90;;;;;;5092211;28;19908;-35
2023/06/05 04:04:20;;;;;;;;;;;12.10;73.90;;;;;;5092262;28;20003;-35
2023/06/05 04:06:46;;;;;;;;;;;12.10;73.60;;;;;;5092037;28;20367;-36
2023/06/05 04:09:12;;;;;;;;;;;12.20;73.60;;;;;;5092197;28;19915;-35
2023/06/05 04:11:42;;;;;;;;;;;12.20;73.70;;;;;;5091957;28;20197;-34
2023/06/05 04:14:08;;;;;;;;;;;12.20;73.80;;;;;;5092174;28;19908;-35
2023/06/05 04:16:34;;;;;;;;;;;12.10;73.80;;;;;;5073602;28;19912;-36
2023/06/05 04:19:00;;;;;;;;;;;12.10;74.10;;;;;;5091919;28;20271;-38
2023/06/05 04:21:25;;;;;;;;;;;12.10;74.10;;;;;;5091731;28;19909;-35
2023/06/05 04:23:51;;;;;;;;;;;12.10;74.00;;;;;;5092004;28;19931;-34
2023/06/05 04:26:17;;;;;;;;;;;12.10;74.10;;;;;;5091604;28;19913;-35
2023/06/05 04:28:43;;;;;;;;;;;12.10;74.10;;;;;;5091693;28;20360;-35
2023/06/05 04:31:09;;;;;;;;;;;12.10;74.10;;;;;;5091912;28;19938;-35
2023/06/05 04:33:34;;;;;;;;;;;12.10;74.00;;;;;;5091945;28;20317;-41
2023/06/05 04:36:00;;;;;;;;;;;12.10;74.30;;;;;;5073869;28;20269;-34
2023/06/05 04:38:25;;;;;;;;;;;12.20;74.40;;;;;;5091757;28;19908;-36
2023/06/05 04:40:51;;;;;;;;;;;12.10;74.30;;;;;;5091642;28;19915;-35
2023/06/05 04:43:16;;;;;;;;;;;12.10;74.50;;;;;;5092289;28;19962;-34
2023/06/05 04:45:42;;;;;;;;;;;12.10;74.60;;;;;;5091792;28;19908;-34
2023/06/05 04:48:08;;;;;;;;;;;12.10;74.50;;;;;;5091827;28;19957;-34
2023/06/05 04:50:35;;;;;;;;;;;12.20;74.60;;;;;;5091840;28;19951;-35
2023/06/05 04:53:01;;;;;;;;;;;12.20;75.30;;;;;;5091518;28;19915;-35
2023/06/05 04:55:26;;;;;;;;;;;12.20;75.60;;;;;;5091520;28;19908;-37
2023/06/05 04:57:53;;;;;;;;;;;12.20;75.10;;;;;;5091750;28;19922;-34
2023/06/05 05:00:19;;;;;;;;;;;12.20;75.40;;;;;;5091806;28;19912;-36
2023/06/05 05:02:44;;;;;;;;;;;12.20;75.30;;;;;;5094522;28;19912;-36
2023/06/05 05:05:13;;;;;;;;;;;12.20;75.20;;;;;;5095347;28;20033;-36
2023/06/05 05:07:41;;;;;;;;;;;12.20;75.40;;;;;;5095612;28;19920;-35
2023/06/05 05:10:08;;;;;;;;;;;12.20;75.30;;;;;;5095444;28;20326;-33
2023/06/05 05:12:33;;;;;;;;;;;12.20;75.80;;;;;;5095317;28;19912;-35
2023/06/05 05:14:59;;;;;;;;;;;12.20;76.10;;;;;;5076882;28;19954;-33
2023/06/05 05:17:25;;;;;;;;;;;12.20;75.80;;;;;;5095764;28;19916;-35
2023/06/05 05:19:51;;;;;;;;;;;12.20;75.90;;;;;;5095198;28;20341;-35
2023/06/05 05:22:17;;;;;;;;;;;12.20;75.70;;;;;;5095141;28;20015;-35
2023/06/05 05:24:42;;;;;;;;;;;12.20;75.70;;;;;;5095294;28;20287;-34
2023/06/05 05:27:08;;;;;;;;;;;12.30;75.70;;;;;;5095011;28;20383;-34
2023/06/05 05:29:33;;;;;;;;;;;12.30;76.00;;;;;;5095197;28;20348;-35
2023/06/05 05:32:00;;;;;;;;;;;12.30;75.80;;;;;;5094563;28;20310;-34
2023/06/05 05:34:26;;;;;;;;;;;12.40;76.20;;;;;;5094875;28;20334;-36
2023/06/05 05:36:51;;;;;;;;;;;12.40;75.90;;;;;;5094694;28;19919;-39
2023/06/05 05:39:17;;;;;;;;;;;12.40;75.70;;;;;;5094844;28;19908;-36
2023/06/05 05:41:43;;;;;;;;;;;12.40;75.50;;;;;;5094557;28;19912;-35
2023/06/05 05:44:08;;;;;;;;;;;12.50;75.30;;;;;;5094636;28;19915;-34
2023/06/05 05:46:34;;;;;;;;;;;12.60;75.20;;;;;;5094696;28;20344;-34
2023/06/05 05:49:00;;;;;;;;;;;12.70;75.20;;;;;;5076454;28;19909;-33
2023/06/05 05:51:25;;;;;;;;;;;12.70;75.00;;;;;;5094312;28;19957;-36
2023/06/05 05:53:51;;;;;;;;;;;12.70;75.10;;;;;;5094496;28;19915;-35
2023/06/05 05:56:17;;;;;;;;;;;12.70;75.30;;;;;;5094561;28;19998;-35
2023/06/05 05:58:43;;;;;;;;;;;12.80;75.30;;;;;;5094613;28;20003;-33
2023/06/05 06:01:08;;;;;;;;;;;12.80;75.40;;;;;;5094491;28;19912;-33
2023/06/05 06:03:37;;;;;;;;;;;12.80;75.20;;;;;;5094196;28;19955;-37
2023/06/05 06:06:08;;;;;;;;;;;12.80;75.10;;;;;;5094579;28;20431;-37
2023/06/05 06:08:34;;;;;;;;;;;12.90;75.00;;;;;;5094176;28;19915;-35
2023/06/05 06:10:59;;;;;;;;;;;13.00;75.20;;;;;;5094517;28;19924;-35
2023/06/05 06:13:25;;;;;;;;;;;13.00;75.00;;;;;;5075712;28;19908;-35
2023/06/05 06:15:50;;;;;;;;;;;13.10;74.90;;;;;;5093902;28;19919;-34
2023/06/05 06:18:16;;;;;;;;;;;13.20;74.70;;;;;;5093814;28;19908;-35
2023/06/05 06:20:41;;;;;;;;;;;13.20;74.70;;;;;;5093980;28;20354;-35
2023/06/05 06:23:07;;;;;;;;;;;13.30;74.60;;;;;;5093977;28;19908;-36
2023/06/05 06:25:32;;;;;;;;;;;13.40;74.30;;;;;;5093934;28;19919;-35
2023/06/05 06:27:59;;;;;;;;;;;13.40;74.00;;;;;;5093822;28;20580;-35
2023/06/05 06:30:25;;;;;;;;;;;13.50;73.80;;;;;;5093848;28;20013;-35
2023/06/05 06:32:50;;;;;;;;;;;13.60;73.90;;;;;;5093942;28;19951;-35
2023/06/05 06:35:16;;;;;;;;;;;13.60;73.90;;;;;;5093766;28;20358;-37
2023/06/05 06:37:42;;;;;;;;;;;13.60;73.90;;;;;;5092783;28;19916;-35
2023/06/05 06:40:10;;;;;;;;;;;13.60;73.90;;;;;;5093149;28;20360;-36
2023/06/05 06:42:37;;;;;;;;;;;13.60;74.00;;;;;;5093571;28;19918;-37
2023/06/05 06:45:04;;;;;;;;;;;13.60;73.80;;;;;;5093519;28;20049;-35
2023/06/05 06:47:30;;;;;;;;;;;13.70;73.80;;;;;;5093769;28;19912;-36
2023/06/05 06:49:56;;;;;;;;;;;13.70;73.70;;;;;;5093592;28;19977;-36
2023/06/05 06:52:22;;;;;;;;;;;13.80;73.50;;;;;;5093335;28;19912;-37
2023/06/05 06:54:48;;;;;;;;;;;13.90;73.50;;;;;;5093584;28;20332;-36
2023/06/05 06:57:13;;;;;;;;;;;14.00;73.30;;;;;;5093442;28;19930;-35
2023/06/05 06:59:41;;;;;;;;;;;14.00;73.10;;;;;;5093277;28;19922;-33
2023/06/05 07:02:09;;;;;;;;;;;14.00;72.90;;;;;;5093303;28;19912;-37
2023/06/05 07:04:35;;;;;;;;;;;14.10;72.80;;;;;;5093488;28;19945;-34
2023/06/05 07:07:01;;;;;;;;;;;14.10;72.80;;;;;;5093354;28;19912;-36
2023/06/05 07:09:26;;;;;;;;;;;14.20;72.70;;;;;;5074702;28;20333;-35
2023/06/05 07:11:53;;;;;;;;;;;14.20;72.70;;;;;;5092888;28;19912;-34
2023/06/05 07:14:19;;;;;;;;;;;14.30;72.50;;;;;;5092906;28;19961;-35
2023/06/05 07:16:45;;;;;;;;;;;14.30;72.20;;;;;;5092700;28;20075;-36
2023/06/05 07:19:10;;;;;;;;;;;14.40;72.20;;;;;;5093220;28;19912;-39
2023/06/05 07:21:37;;;;;;;;;;;14.50;72.10;;;;;;5092934;28;19916;-36
2023/06/05 07:24:04;;;;;;;;;;;14.60;72.00;;;;;;5092517;28;20333;-34
2023/06/05 07:26:29;;;;;;;;;;;14.60;71.70;;;;;;5093001;28;19916;-36
2023/06/05 07:28:55;;;;;;;;;;;14.70;71.50;;;;;;5092789;28;19935;-36
2023/06/05 07:31:21;;;;;;;;;;;14.80;71.40;;;;;;5093032;28;19912;-35
2023/06/05 07:33:46;;;;;;;;;;;14.90;71.10;;;;;;5092988;28;19912;-35
2023/06/05 07:36:13;;;;;;;;;;;15.10;71.00;;;;;;5092313;28;20241;-35
2023/06/05 07:38:39;;;;;;;;;;;15.10;70.80;;;;;;5092616;28;20291;-37
2023/06/05 07:41:05;;;;;;;;;;;15.20;70.70;;;;;;5092488;28;19916;-35
2023/06/05 07:43:31;;;;;;;;;;;15.30;70.60;;;;;;5092601;28;19912;-35
2023/06/05 07:45:56;;;;;;;;;;;15.30;70.30;;;;;;5092989;28;20287;-37
2023/06/05 07:48:22;;;;;;;;;;;15.40;70.20;;;;;;5092486;28;20006;-36
2023/06/05 07:50:47;;;;;;;;;;;15.60;70.30;;;;;;5074313;28;19916;-34
2023/06/05 07:53:13;;;;;;;;;;;15.60;69.90;;;;;;5092630;28;19916;-35
2023/06/05 07:55:38;;;;;;;;;;;15.60;69.90;;;;;;5092215;28;19960;-35
2023/06/05 07:58:04;;;;;;;;;;;15.70;69.90;;;;;;5092180;28;19916;-34
2023/06/05 08:00:29;;;;;;;;;;;15.70;69.80;;;;;;5092131;28;19985;-36
2023/06/05 08:02:57;;;;;;;;;;;15.80;69.60;;;;;;5074146;28;19913;-36
2023/06/05 08:05:22;;;;;;;;;;;15.80;69.50;;;;;;5092176;28;19919;-35
2023/06/05 08:07:48;;;;;;;;;;;15.80;69.50;;;;;;5092288;28;19912;-35
2023/06/05 08:10:13;;;;;;;;;;;15.90;69.50;;;;;;5073829;28;19922;-35
2023/06/05 08:12:39;;;;;;;;;;;15.90;69.30;;;;;;5091998;28;19912;-36
2023/06/05 08:15:05;;;;;;;;;;;16.00;69.20;;;;;;5091826;28;19916;-34
2023/06/05 08:17:31;;;;;;;;;;;16.20;69.10;;;;;;5091939;28;19998;-32
2023/06/05 08:19:56;;;;;;;;;;;16.20;68.90;;;;;;5092265;28;19955;-36
2023/06/05 08:22:22;;;;;;;;;;;16.30;68.80;;;;;;5092004;28;19912;-35
2023/06/05 08:24:49;;;;;;;;;;;16.40;68.70;;;;;;5091953;28;19918;-36
2023/06/05 08:27:16;;;;;;;;;;;16.40;68.50;;;;;;5091921;28;20048;-38
2023/06/05 08:29:41;;;;;;;;;;;16.50;68.60;;;;;;5091933;28;20234;-36
2023/06/05 08:32:07;;;;;;;;;;;16.40;68.40;;;;;;5091846;28;20003;-35
2023/06/05 08:34:34;;;;;;;;;;;16.50;68.40;;;;;;5092209;28;19916;-41
2023/06/05 08:37:00;;;;;;;;;;;16.50;68.30;;;;;;5095531;28;19916;-36
2023/06/05 08:39:29;;;;;;;;;;;16.60;68.20;;;;;;5096118;28;20287;-36
2023/06/05 08:41:59;;;;;;;;;;;16.60;68.20;;;;;;5095899;28;19916;-36
2023/06/05 08:44:26;;;;;;;;;;;16.70;68.00;;;;;;5095913;28;20273;-35
2023/06/05 08:46:52;;;;;;;;;;;16.80;68.00;;;;;;5095837;28;19951;-35
2023/06/05 08:49:21;;;;;;;;;;;16.80;67.90;;;;;;5095986;28;19962;-36
2023/06/05 08:51:49;;;;;;;;;;;16.90;67.80;;;;;;5077487;28;19920;-38
2023/06/05 08:54:16;;;;;;;;;;;16.90;67.70;;;;;;5095762;28;20386;-43
2023/06/05 08:56:42;;;;;;;;;;;17.00;67.80;;;;;;5095586;28;19916;-37
2023/06/05 08:59:07;;;;;;;;;;;17.10;67.60;;;;;;5095818;28;19912;-37
2023/06/05 09:01:33;;;;;;;;;;;17.20;67.50;;;;;;5095502;28;19958;-36
2023/06/05 09:03:58;;;;;;;;;;;17.20;67.30;;;;;;5095530;28;19912;-35
2023/06/05 09:06:24;;;;;;;;;;;17.30;67.00;;;;;;5095902;28;19919;-37
2023/06/05 09:08:49;;;;;;;;;;;17.30;66.90;;;;;;5095633;28;19916;-36
2023/06/05 09:11:22;;;;;;;;;;;17.40;66.90;;;;;;5095502;28;19912;-37
2023/06/05 09:13:48;;;;;;;;;;;17.50;66.80;;;;;;5095410;28;19912;-36
2023/06/05 09:16:13;;;;;;;;;;;17.60;66.50;;;;;;5077236;28;20022;-37
2023/06/05 09:18:55;;;;;;;;;;;17.70;66.20;;;;;;5095457;28;20368;-36
2023/06/05 09:21:21;;;;;;;;;;;17.80;66.10;;;;;;5095259;28;20326;-37
2023/06/05 09:23:46;;;;;;;;;;;17.90;65.80;;;;;;5095724;28;19918;-39
2023/06/05 09:26:13;;;;;;;;;;;17.90;66.00;;;;;;5095230;28;19912;-36
2023/06/05 09:28:53;;;;;;;;;;;18.00;66.00;;;;;;5095442;28;20027;-36
2023/06/05 09:31:19;;;;;;;;;;;18.10;66.30;;;;;;5095343;28;19951;-36
2023/06/05 09:33:53;;;;;;;;;;;18.10;65.50;;;;;;5095071;28;20002;-36
2023/06/05 09:36:19;;;;;;;;;;;18.20;65.40;;;;;;5094979;28;19916;-36
2023/06/05 09:38:45;;;;;;;;;;;18.20;65.30;;;;;;5095246;28;19923;-36
2023/06/05 09:41:11;;;;;;;;;;;18.30;65.10;;;;;;5094926;28;19912;-34
2023/06/05 09:43:37;;;;;;;;;;;18.40;65.00;;;;;;5094897;28;19912;-47
2023/06/05 09:46:13;;;;;;;;;;;18.40;65.00;;;;;;5095025;28;19916;-34
2023/06/05 09:48:39;;;;;;;;;;;18.50;64.70;;;;;;5094345;28;19912;-37
2023/06/05 09:51:09;;;;;;;;;;;18.60;64.40;;;;;;5094853;28;20331;-38
2023/06/05 09:53:37;;;;;;;;;;;18.70;64.10;;;;;;5094981;28;19916;-34
2023/06/05 09:56:03;;;;;;;;;;;18.80;64.00;;;;;;5076539;28;20249;-35
2023/06/05 09:58:29;;;;;;;;;;;18.90;63.90;;;;;;5094833;28;19912;-36
2023/06/05 10:00:59;;;;;;;;;;;19.00;63.80;;;;;;5094762;28;19977;-36
2023/06/05 10:03:25;;;;;;;;;;;19.00;63.40;;;;;;5076485;28;19912;-36
2023/06/05 10:05:51;;;;;;;;;;;19.10;63.50;;;;;;5094681;28;19939;-34
2023/06/05 10:08:16;;;;;;;;;;;19.20;63.40;;;;;;5094688;28;19912;-36
2023/06/05 10:10:42;;;;;;;;;;;19.30;62.60;;;;;;5094493;28;19912;-36
2023/06/05 10:13:10;;;;;;;;;;;19.40;62.80;;;;;;5094386;28;20007;-36
2023/06/05 10:15:38;;;;;;;;;;;19.40;62.80;;;;;;5076344;28;19916;-36
2023/06/05 10:18:04;;;;;;;;;;;19.50;62.30;;;;;;5094277;28;19923;-35
2023/06/05 10:20:30;;;;;;;;;;;19.70;62.30;;;;;;5094539;28;20396;-35
2023/06/05 10:22:56;;;;;;;;;;;19.70;62.10;;;;;;5094071;28;19912;-35
2023/06/05 10:25:22;;;;;;;;;;;19.70;61.90;;;;;;5094044;28;20241;-35
2023/06/05 10:27:56;;;;;;;;;;;19.80;61.90;;;;;;5094044;28;20057;-38
2023/06/05 10:30:40;;;;;;;;;;;19.90;61.40;;;;;;5094221;28;20273;-42
2023/06/05 10:33:29;;;;;;;;;;;20.00;61.60;;;;;;5094011;28;19912;-36
2023/06/05 10:36:01;;;;;;;;;;;20.10;61.30;;;;;;5093874;28;19956;-36
2023/06/05 10:38:27;;;;;;;;;;;20.20;60.90;;;;;;5094025;28;19962;-36
2023/06/05 10:40:59;;;;;;;;;;;20.30;61.10;;;;;;5093907;28;19912;-36
2023/06/05 10:43:26;;;;;;;;;;;20.40;60.70;;;;;;5093900;28;19965;-36
2023/06/05 10:45:52;;;;;;;;;;;20.50;60.50;;;;;;5093930;28;19912;-40
2023/06/05 10:48:17;;;;;;;;;;;20.50;59.80;;;;;;5093798;28;19912;-38
2023/06/05 10:50:43;;;;;;;;;;;20.50;59.90;;;;;;5093688;28;20395;-37
2023/06/05 10:53:28;;;;;;;;;;;20.60;59.70;;;;;;5093645;28;19951;-35
2023/06/05 10:55:54;;;;;;;;;;;20.60;59.80;;;;;;5093247;28;19912;-35
2023/06/05 10:58:22;;;;;;;;;;;20.70;60.00;;;;;;5093137;28;20372;-36
2023/06/05 11:01:08;;;;;;;;;;;20.80;59.90;;;;;;5092746;28;19943;-36
2023/06/05 11:03:52;;;;;;;;;;;20.90;59.80;;;;;;5093605;28;19912;-35
2023/06/05 11:06:18;;;;;;;;;;;21.00;59.50;;;;;;5093172;28;19978;-37
2023/06/05 11:09:03;;;;;;;;;;;21.10;59.20;;;;;;5093118;28;19912;-35
2023/06/05 11:11:28;;;;;;;;;;;21.10;59.10;;;;;;5092977;28;20287;-36
2023/06/05 11:13:55;;;;;;;;;;;21.20;59.10;;;;;;5093088;28;19924;-37
2023/06/05 11:16:30;;;;;;;;;;;21.20;58.90;;;;;;5092897;28;19928;-33
2023/06/05 11:19:14;;;;;;;;;;;21.30;58.80;;;;;;5074653;28;19915;-37
2023/06/05 11:22:18;;;;;;;;;;;21.40;58.10;;;;;;5093017;28;19919;-37
2023/06/05 11:24:43;;;;;;;;;;;21.50;58.00;;;;;;4990879;28;19921;-37
2023/06/05 11:27:29;;;;;;;;;;;21.50;58.10;;;;;;4974555;28;19922;-37
2023/06/05 11:29:55;;;;;;;;;;;21.60;58.00;;;;;;5039456;28;19947;-43
2023/06/05 11:32:25;;;;;;;;;;;21.70;57.80;;;;;;5072478;28;19919;-36
2023/06/05 11:34:52;;;;;;;;;;;21.80;57.60;;;;;;5072511;28;19912;-35
2023/06/05 11:37:18;;;;;;;;;;;21.90;56.90;;;;;;5072300;28;19923;-36
2023/06/05 11:39:44;;;;;;;;;;;22.00;57.40;;;;;;5072539;28;19923;-36
2023/06/05 11:42:09;;;;;;;;;;;22.00;56.70;;;;;;5072309;28;19912;-36
2023/06/05 11:44:35;;;;;;;;;;;22.10;56.00;;;;;;5072257;28;19962;-35
2023/06/05 11:47:01;;;;;;;;;;;22.10;55.70;;;;;;5072242;28;20384;-36
2023/06/05 11:49:27;;;;;;;;;;;22.20;56.00;;;;;;5072196;28;19948;-35
2023/06/05 11:51:53;;;;;;;;;;;22.30;56.10;;;;;;5072082;28;19912;-35
2023/06/05 11:54:25;;;;;;;;;;;22.40;55.60;;;;;;5072111;28;19999;-36
2023/06/05 11:56:55;;;;;;;;;;;22.50;55.60;;;;;;5071962;28;19917;-36
2023/06/05 11:59:21;;;;;;;;;;;22.50;54.50;;;;;;5072239;28;19917;-36
2023/06/05 12:01:47;;;;;;;;;;;22.50;55.00;;;;;;5072049;28;19918;-40
2023/06/05 12:04:14;;;;;;;;;;;22.60;54.10;;;;;;5071948;28;20464;-34
2023/06/05 12:06:41;;;;;;;;;;;22.60;54.20;;;;;;5072065;28;19958;-43
2023/06/05 12:09:09;;;;;;;;;;;22.60;54.20;;;;;;5071831;28;19912;-34
2023/06/05 12:11:35;;;;;;;;;;;22.70;54.30;;;;;;5071660;28;19916;-34
2023/06/05 12:14:00;;;;;;;;;;;22.80;53.50;;;;;;5071811;28;19913;-37
2023/06/05 12:16:44;;;;;;;;;;;22.90;54.00;;;;;;5072030;28;19967;-35
2023/06/05 12:19:12;;;;;;;;;;;23.00;53.60;;;;;;5071765;28;19912;-36
2023/06/05 12:21:37;;;;;;;;;;;23.00;53.60;;;;;;5071717;28;19919;-36
2023/06/05 12:24:04;;;;;;;;;;;23.10;53.30;;;;;;5071816;28;19912;-36
2023/06/05 12:26:29;;;;;;;;;;;23.20;53.10;;;;;;5075388;28;19916;-35
2023/06/05 12:29:03;;;;;;;;;;;23.20;52.60;;;;;;5091790;28;19918;-36
2023/06/05 12:31:35;;;;;;;;;;;23.30;52.50;;;;;;5091886;28;19961;-35
2023/06/05 12:34:02;;;;;;;;;;;23.30;52.50;;;;;;5091836;28;19990;-36
2023/06/05 12:36:28;;;;;;;;;;;23.30;52.30;;;;;;5091882;28;19947;-35
2023/06/05 12:38:54;;;;;;;;;;;23.40;51.80;;;;;;5091967;28;19912;-49
2023/06/05 12:41:20;;;;;;;;;;;23.40;51.70;;;;;;5092005;28;20003;-36
2023/06/05 12:43:45;;;;;;;;;;;23.50;51.90;;;;;;5091871;28;20003;-35
2023/06/05 12:46:13;;;;;;;;;;;23.60;51.80;;;;;;5091901;28;19912;-36
2023/06/05 12:48:38;;;;;;;;;;;23.60;51.40;;;;;;5091735;28;19947;-36
2023/06/05 12:51:04;;;;;;;;;;;23.70;51.10;;;;;;5091772;28;20351;-38
2023/06/05 12:53:30;;;;;;;;;;;23.80;50.60;;;;;;5091815;28;19912;-36
2023/06/05 12:55:56;;;;;;;;;;;23.80;50.80;;;;;;5073501;28;19919;-36
2023/06/05 12:58:21;;;;;;;;;;;23.90;50.00;;;;;;5092077;28;20263;-35
2023/06/05 13:00:48;;;;;;;;;;;24.00;50.10;;;;;;5091810;28;19908;-38
2023/06/05 13:03:13;;;;;;;;;;;24.00;50.30;;;;;;5091574;28;19912;-36
2023/06/05 13:05:39;;;;;;;;;;;24.10;50.40;;;;;;5091644;28;19995;-36
2023/06/05 13:08:06;;;;;;;;;;;24.20;50.40;;;;;;5091630;28;20390;-32
2023/06/05 13:10:31;;;;;;;;;;;24.30;49.50;;;;;;5091852;28;19908;-37
2023/06/05 13:12:57;;;;;;;;;;;24.30;48.50;;;;;;5091710;28;19908;-36
2023/06/05 13:15:22;;;;;;;;;;;24.30;48.30;;;;;;5091901;28;19908;-37
2023/06/05 13:17:49;;;;;;;;;;;24.30;48.80;;;;;;5091550;28;20279;-35
2023/06/05 13:20:15;;;;;;;;;;;24.40;49.20;;;;;;5091926;28;19916;-35
2023/06/05 13:22:40;;;;;;;;;;;24.50;49.20;;;;;;5092924;28;20395;-37
2023/06/05 13:25:06;;;;;;;;;;;24.70;48.80;;;;;;5095135;28;19943;-35
2023/06/05 13:27:32;;;;;;;;;;;24.80;48.80;;;;;;5095384;28;19920;-36
2023/06/05 13:29:58;;;;;;;;;;;24.80;47.90;;;;;;5095317;28;20280;-36
2023/06/05 13:32:23;;;;;;;;;;;24.90;48.20;;;;;;5077019;28;19955;-34
2023/06/05 13:34:49;;;;;;;;;;;24.90;48.20;;;;;;5095011;28;20287;-36
2023/06/05 13:37:14;;;;;;;;;;;25.00;48.20;;;;;;5095219;28;20348;-36
2023/06/05 13:39:40;;;;;;;;;;;25.10;47.70;;;;;;5095135;28;20294;-38
2023/06/05 13:42:05;;;;;;;;;;;25.20;47.40;;;;;;5095348;28;19914;-37
2023/06/05 13:44:31;;;;;;;;;;;25.20;47.60;;;;;;5077180;28;19908;-37
2023/06/05 13:46:57;;;;;;;;;;;25.20;47.50;;;;;;5095123;28;19908;-35
2023/06/05 13:49:22;;;;;;;;;;;25.20;47.80;;;;;;5095092;28;19908;-36
2023/06/05 13:51:48;;;;;;;;;;;25.30;47.60;;;;;;5094711;28;19908;-37
2023/06/05 13:54:13;;;;;;;;;;;25.40;47.80;;;;;;5094634;28;19909;-36
2023/06/05 13:56:39;;;;;;;;;;;25.50;47.90;;;;;;5076437;28;19918;-36
2023/06/05 13:59:04;;;;;;;;;;;25.60;47.40;;;;;;5094640;28;20020;-36
2023/06/05 14:01:30;;;;;;;;;;;25.70;46.90;;;;;;5094710;28;19908;-37
2023/06/05 14:03:55;;;;;;;;;;;25.70;47.40;;;;;;5076313;28;20340;-37
2023/06/05 14:06:21;;;;;;;;;;;25.80;47.50;;;;;;5095021;28;19922;-38
2023/06/05 14:08:46;;;;;;;;;;;25.90;47.10;;;;;;5094508;28;19909;-39
2023/06/05 14:11:12;;;;;;;;;;;25.90;44.80;;;;;;5094453;28;20276;-35
2023/06/05 14:13:38;;;;;;;;;;;25.80;45.70;;;;;;5094319;28;19951;-36
2023/06/05 14:16:04;;;;;;;;;;;25.90;46.10;;;;;;5094320;28;19908;-36